« Back
NWS Peachtree City, Ga » Text Product » CSG Terminal Aerodrome Forecast


Printer-friendly Version
Current Version              Previous Versions:   1  2  3  4  5  6  7  8  9  

Terminal Aerodrome Forecast

672
FTUS42 KFFC 250524
TAFCSG
TAF
KCSG 250524Z 2506/2606 33004KT P6SM FEW012 BKN050
      TEMPO 2507/2510 SCT012 BKN025
     FM251600 36006KT P6SM VCSH SCT028 BKN060
     FM252200 35006KT P6SM -SHRA SCT030 OVC050
     FM260200 33007KT 5SM -SHRA BR SCT012 OVC025=

USA.gov is the U.S. government's official web portal to all federal, state and local government web resources and services.